sensor_id;sensor_type;location;lat;lon;timestamp;temperature;humidity
41985;DHT22;28319;48.116;10.818;2023-04-09T00:02:53;5.40;99.90
41985;DHT22;28319;48.116;10.818;2023-04-09T00:07:55;5.30;99.90
41985;DHT22;28319;48.116;10.818;2023-04-09T00:12:58;5.30;99.90
41985;DHT22;28319;48.116;10.818;2023-04-09T00:18:01;5.30;99.90
41985;DHT22;28319;48.116;10.818;2023-04-09T00:23:03;5.30;99.90
41985;DHT22;28319;48.116;10.818;2023-04-09T00:28:07;5.30;99.90
41985;DHT22;28319;48.116;10.818;2023-04-09T00:33:09;5.30;99.90
41985;DHT22;28319;48.116;10.818;2023-04-09T00:38:11;5.30;99.90
41985;DHT22;28319;48.116;10.818;2023-04-09T00:43:14;5.30;99.90
41985;DHT22;28319;48.116;10.818;2023-04-09T00:48:17;5.10;99.90
41985;DHT22;28319;48.116;10.818;2023-04-09T00:53:19;5.10;99.90
41985;DHT22;28319;48.116;10.818;2023-04-09T00:58:22;5.10;99.90
41985;DHT22;28319;48.116;10.818;2023-04-09T01:03:25;5.20;99.90
41985;DHT22;28319;48.116;10.818;2023-04-09T01:08:35;5.20;99.90
41985;DHT22;28319;48.116;10.818;2023-04-09T01:13:47;5.20;99.90
41985;DHT22;28319;48.116;10.818;2023-04-09T01:18:55;5.10;99.90
41985;DHT22;28319;48.116;10.818;2023-04-09T01:24:15;5.20;99.90
41985;DHT22;28319;48.116;10.818;2023-04-09T01:29:22;5.40;99.90
41985;DHT22;28319;48.116;10.818;2023-04-09T01:34:25;5.10;99.90
41985;DHT22;28319;48.116;10.818;2023-04-09T01:39:28;4.90;99.90
41985;DHT22;28319;48.116;10.818;2023-04-09T01:44:32;4.90;99.90
41985;DHT22;28319;48.116;10.818;2023-04-09T01:49:35;5.00;99.90
41985;DHT22;28319;48.116;10.818;2023-04-09T01:54:37;5.00;99.90
41985;DHT22;28319;48.116;10.818;2023-04-09T01:59:40;5.00;99.90
41985;DHT22;28319;48.116;10.818;2023-04-09T02:04:46;4.90;99.90
41985;DHT22;28319;48.116;10.818;2023-04-09T02:09:48;4.90;99.90
41985;DHT22;28319;48.116;10.818;2023-04-09T02:14:54;4.90;99.90
41985;DHT22;28319;48.116;10.818;2023-04-09T02:19:56;5.00;99.90
41985;DHT22;28319;48.116;10.818;2023-04-09T02:24:58;4.90;99.90
41985;DHT22;28319;48.116;10.818;2023-04-09T02:30:02;4.90;99.90
41985;DHT22;28319;48.116;10.818;2023-04-09T02:35:05;4.80;99.90
41985;DHT22;28319;48.116;10.818;2023-04-09T02:40:09;4.80;99.90
41985;DHT22;28319;48.116;10.818;2023-04-09T02:45:12;4.80;99.90
41985;DHT22;28319;48.116;10.818;2023-04-09T02:50:14;4.90;99.90
41985;DHT22;28319;48.116;10.818;2023-04-09T02:55:19;4.70;99.90
41985;DHT22;28319;48.116;10.818;2023-04-09T03:00:22;4.80;99.90
41985;DHT22;28319;48.116;10.818;2023-04-09T03:05:24;4.80;99.90
41985;DHT22;28319;48.116;10.818;2023-04-09T03:10:26;4.80;99.90
41985;DHT22;28319;48.116;10.818;2023-04-09T03:15:30;4.80;99.90
41985;DHT22;28319;48.116;10.818;2023-04-09T03:20:32;4.80;99.90
41985;DHT22;28319;48.116;10.818;2023-04-09T03:25:34;4.80;99.90
41985;DHT22;28319;48.116;10.818;2023-04-09T03:30:37;4.90;99.90
41985;DHT22;28319;48.116;10.818;2023-04-09T03:35:39;4.80;99.90
41985;DHT22;28319;48.116;10.818;2023-04-09T03:40:42;4.80;99.90
41985;DHT22;28319;48.116;10.818;2023-04-09T03:45:46;4.90;99.90
41985;DHT22;28319;48.116;10.818;2023-04-09T03:50:48;4.90;99.90
41985;DHT22;28319;48.116;10.818;2023-04-09T03:55:53;4.80;99.90
41985;DHT22;28319;48.116;10.818;2023-04-09T04:00:56;4.70;99.90
41985;DHT22;28319;48.116;10.818;2023-04-09T04:05:59;4.80;99.90
41985;DHT22;28319;48.116;10.818;2023-04-09T04:11:03;4.80;99.90
41985;DHT22;28319;48.116;10.818;2023-04-09T04:16:08;4.80;99.90
41985;DHT22;28319;48.116;10.818;2023-04-09T04:21:12;4.80;99.90
41985;DHT22;28319;48.116;10.818;2023-04-09T04:26:14;4.80;99.90
41985;DHT22;28319;48.116;10.818;2023-04-09T04:31:17;4.70;99.90
41985;DHT22;28319;48.116;10.818;2023-04-09T04:36:19;4.90;99.90
41985;DHT22;28319;48.116;10.818;2023-04-09T04:41:21;4.70;99.90
41985;DHT22;28319;48.116;10.818;2023-04-09T04:46:25;4.80;99.90
41985;DHT22;28319;48.116;10.818;2023-04-09T04:51:29;4.70;99.90
41985;DHT22;28319;48.116;10.818;2023-04-09T04:56:31;4.70;99.90
41985;DHT22;28319;48.116;10.818;2023-04-09T05:01:35;4.60;99.90
41985;DHT22;28319;48.116;10.818;2023-04-09T05:06:37;4.60;99.90
41985;DHT22;28319;48.116;10.818;2023-04-09T05:11:39;4.70;99.90
41985;DHT22;28319;48.116;10.818;2023-04-09T05:16:42;4.70;99.90
41985;DHT22;28319;48.116;10.818;2023-04-09T05:21:44;4.80;99.90
41985;DHT22;28319;48.116;10.818;2023-04-09T05:26:46;5.00;99.90
41985;DHT22;28319;48.116;10.818;2023-04-09T05:31:49;5.10;99.90
41985;DHT22;28319;48.116;10.818;2023-04-09T05:36:51;4.70;99.90
41985;DHT22;28319;48.116;10.818;2023-04-09T05:41:53;4.60;99.90
41985;DHT22;28319;48.116;10.818;2023-04-09T05:46:57;4.50;99.90
41985;DHT22;28319;48.116;10.818;2023-04-09T05:51:59;4.50;99.90
41985;DHT22;28319;48.116;10.818;2023-04-09T05:57:01;4.50;99.90
41985;DHT22;28319;48.116;10.818;2023-04-09T06:02:04;4.40;99.90
41985;DHT22;28319;48.116;10.818;2023-04-09T06:07:06;4.80;99.90
41985;DHT22;28319;48.116;10.818;2023-04-09T06:12:08;4.60;99.90
41985;DHT22;28319;48.116;10.818;2023-04-09T06:17:12;4.50;99.90
41985;DHT22;28319;48.116;10.818;2023-04-09T06:22:14;4.70;99.90
41985;DHT22;28319;48.116;10.818;2023-04-09T06:27:16;4.70;99.90
41985;DHT22;28319;48.116;10.818;2023-04-09T06:32:20;4.70;99.90
41985;DHT22;28319;48.116;10.818;2023-04-09T06:37:22;5.00;99.90
41985;DHT22;28319;48.116;10.818;2023-04-09T06:42:24;4.80;99.90
41985;DHT22;28319;48.116;10.818;2023-04-09T06:47:27;4.90;99.90
41985;DHT22;28319;48.116;10.818;2023-04-09T06:52:29;5.00;99.90
41985;DHT22;28319;48.116;10.818;2023-04-09T06:57:31;5.00;99.90
41985;DHT22;28319;48.116;10.818;2023-04-09T07:02:35;5.00;99.90
41985;DHT22;28319;48.116;10.818;2023-04-09T07:07:37;5.10;99.90
41985;DHT22;28319;48.116;10.818;2023-04-09T07:12:39;5.30;99.90
41985;DHT22;28319;48.116;10.818;2023-04-09T07:17:42;5.30;99.90
41985;DHT22;28319;48.116;10.818;2023-04-09T07:22:44;5.30;99.90
41985;DHT22;28319;48.116;10.818;2023-04-09T07:27:46;5.50;99.90
41985;DHT22;28319;48.116;10.818;2023-04-09T07:32:50;5.50;99.90
41985;DHT22;28319;48.116;10.818;2023-04-09T07:37:52;5.70;99.90
41985;DHT22;28319;48.116;10.818;2023-04-09T07:42:55;5.70;99.90
41985;DHT22;28319;48.116;10.818;2023-04-09T07:47:59;5.80;99.90
41985;DHT22;28319;48.116;10.818;2023-04-09T07:53:01;5.80;99.90
41985;DHT22;28319;48.116;10.818;2023-04-09T07:58:03;5.90;99.90
41985;DHT22;28319;48.116;10.818;2023-04-09T08:03:07;6.10;99.90
41985;DHT22;28319;48.116;10.818;2023-04-09T08:08:09;6.30;99.90
41985;DHT22;28319;48.116;10.818;2023-04-09T08:13:11;6.50;99.90
41985;DHT22;28319;48.116;10.818;2023-04-09T08:18:14;6.70;99.90
41985;DHT22;28319;48.116;10.818;2023-04-09T08:23:17;7.00;99.90
41985;DHT22;28319;48.116;10.818;2023-04-09T08:28:19;7.10;99.90
41985;DHT22;28319;48.116;10.818;2023-04-09T08:33:22;7.10;99.90
41985;DHT22;28319;48.116;10.818;2023-04-09T08:38:24;7.40;99.90
41985;DHT22;28319;48.116;10.818;2023-04-09T08:43:27;7.30;99.90
41985;DHT22;28319;48.116;10.818;2023-04-09T08:48:32;7.50;99.90
41985;DHT22;28319;48.116;10.818;2023-04-09T08:53:35;7.70;99.90
41985;DHT22;28319;48.116;10.818;2023-04-09T08:58:41;7.90;99.90
41985;DHT22;28319;48.116;10.818;2023-04-09T09:03:54;8.00;99.90
41985;DHT22;28319;48.116;10.818;2023-04-09T09:09:05;8.00;99.90
41985;DHT22;28319;48.116;10.818;2023-04-09T09:14:08;8.30;99.90
41985;DHT22;28319;48.116;10.818;2023-04-09T09:19:28;8.40;99.90
41985;DHT22;28319;48.116;10.818;2023-04-09T09:24:31;8.80;99.90
41985;DHT22;28319;48.116;10.818;2023-04-09T09:29:40;9.10;99.90
41985;DHT22;28319;48.116;10.818;2023-04-09T09:34:56;9.40;99.90
41985;DHT22;28319;48.116;10.818;2023-04-09T09:39:59;9.40;99.90
41985;DHT22;28319;48.116;10.818;2023-04-09T09:45:04;9.80;99.90
41985;DHT22;28319;48.116;10.818;2023-04-09T09:50:23;10.00;99.90
41985;DHT22;28319;48.116;10.818;2023-04-09T09:55:26;10.20;99.90
41985;DHT22;28319;48.116;10.818;2023-04-09T10:00:31;10.50;99.90
41985;DHT22;28319;48.116;10.818;2023-04-09T10:05:36;10.80;99.90
41985;DHT22;28319;48.116;10.818;2023-04-09T10:10:39;11.00;99.90
41985;DHT22;28319;48.116;10.818;2023-04-09T10:15:43;11.10;99.70
41985;DHT22;28319;48.116;10.818;2023-04-09T10:20:53;10.60;99.90
41985;DHT22;28319;48.116;10.818;2023-04-09T10:25:56;10.80;99.90
41985;DHT22;28319;48.116;10.818;2023-04-09T10:30:59;11.20;99.80
41985;DHT22;28319;48.116;10.818;2023-04-09T10:36:05;11.40;98.50
41985;DHT22;28319;48.116;10.818;2023-04-09T10:41:14;11.40;97.90
41985;DHT22;28319;48.116;10.818;2023-04-09T10:46:27;11.30;97.90
41985;DHT22;28319;48.116;10.818;2023-04-09T10:51:35;11.00;97.10
41985;DHT22;28319;48.116;10.818;2023-04-09T10:56:38;10.80;96.90
41985;DHT22;28319;48.116;10.818;2023-04-09T11:01:40;10.60;97.30
41985;DHT22;28319;48.116;10.818;2023-04-09T11:06:54;11.40;98.00
41985;DHT22;28319;48.116;10.818;2023-04-09T11:11:56;11.10;97.80
41985;DHT22;28319;48.116;10.818;2023-04-09T11:16:58;11.10;97.30
41985;DHT22;28319;48.116;10.818;2023-04-09T11:22:04;12.10;97.40
41985;DHT22;28319;48.116;10.818;2023-04-09T11:27:06;11.50;96.20
41985;DHT22;28319;48.116;10.818;2023-04-09T11:32:08;12.00;96.40
41985;DHT22;28319;48.116;10.818;2023-04-09T11:37:15;12.20;95.60
41985;DHT22;28319;48.116;10.818;2023-04-09T11:42:17;12.20;95.40
41985;DHT22;28319;48.116;10.818;2023-04-09T11:47:20;12.90;95.20
41985;DHT22;28319;48.116;10.818;2023-04-09T11:52:24;12.30;94.80
41985;DHT22;28319;48.116;10.818;2023-04-09T11:57:36;11.60;94.60
41985;DHT22;28319;48.116;10.818;2023-04-09T12:02:43;12.30;96.10
41985;DHT22;28319;48.116;10.818;2023-04-09T12:07:47;11.50;95.80
41985;DHT22;28319;48.116;10.818;2023-04-09T12:12:49;11.00;96.40
41985;DHT22;28319;48.116;10.818;2023-04-09T12:17:53;11.10;96.30
41985;DHT22;28319;48.116;10.818;2023-04-09T12:22:58;11.20;95.60
41985;DHT22;28319;48.116;10.818;2023-04-09T12:28:03;11.20;95.30
41985;DHT22;28319;48.116;10.818;2023-04-09T12:33:06;11.20;94.90
41985;DHT22;28319;48.116;10.818;2023-04-09T12:38:10;11.20;94.70
41985;DHT22;28319;48.116;10.818;2023-04-09T12:43:12;10.90;95.00
41985;DHT22;28319;48.116;10.818;2023-04-09T12:48:14;10.90;94.70
41985;DHT22;28319;48.116;10.818;2023-04-09T12:53:17;10.90;94.60
41985;DHT22;28319;48.116;10.818;2023-04-09T12:58:19;10.60;94.70
41985;DHT22;28319;48.116;10.818;2023-04-09T13:03:21;11.70;94.90
41985;DHT22;28319;48.116;10.818;2023-04-09T13:08:25;11.90;95.00
41985;DHT22;28319;48.116;10.818;2023-04-09T13:13:27;12.00;93.00
41985;DHT22;28319;48.116;10.818;2023-04-09T13:18:29;12.40;93.70
41985;DHT22;28319;48.116;10.818;2023-04-09T13:23:32;12.80;92.80
41985;DHT22;28319;48.116;10.818;2023-04-09T13:28:34;12.80;91.30
41985;DHT22;28319;48.116;10.818;2023-04-09T13:33:36;12.20;92.80
41985;DHT22;28319;48.116;10.818;2023-04-09T13:38:40;12.10;92.30
41985;DHT22;28319;48.116;10.818;2023-04-09T13:43:42;12.30;93.70
41985;DHT22;28319;48.116;10.818;2023-04-09T13:48:44;11.90;93.90
41985;DHT22;28319;48.116;10.818;2023-04-09T13:53:48;11.60;94.40
41985;DHT22;28319;48.116;10.818;2023-04-09T13:58:50;11.60;94.10
41985;DHT22;28319;48.116;10.818;2023-04-09T14:03:52;11.60;93.70
41985;DHT22;28319;48.116;10.818;2023-04-09T14:08:55;11.30;93.90
41985;DHT22;28319;48.116;10.818;2023-04-09T14:13:57;11.30;94.40
41985;DHT22;28319;48.116;10.818;2023-04-09T14:18:59;11.70;94.50
41985;DHT22;28319;48.116;10.818;2023-04-09T14:24:03;11.60;94.20
41985;DHT22;28319;48.116;10.818;2023-04-09T14:29:05;11.50;94.00
41985;DHT22;28319;48.116;10.818;2023-04-09T14:34:09;11.80;94.30
41985;DHT22;28319;48.116;10.818;2023-04-09T14:39:12;11.60;94.00
41985;DHT22;28319;48.116;10.818;2023-04-09T14:44:15;11.40;93.90
41985;DHT22;28319;48.116;10.818;2023-04-09T14:49:17;11.70;94.10
41985;DHT22;28319;48.116;10.818;2023-04-09T14:54:21;12.20;93.40
41985;DHT22;28319;48.116;10.818;2023-04-09T14:59:23;11.80;92.50
41985;DHT22;28319;48.116;10.818;2023-04-09T15:04:25;12.00;92.00
41985;DHT22;28319;48.116;10.818;2023-04-09T15:09:28;12.00;94.40
41985;DHT22;28319;48.116;10.818;2023-04-09T15:14:31;11.70;93.90
41985;DHT22;28319;48.116;10.818;2023-04-09T15:19:33;11.50;94.90
41985;DHT22;28319;48.116;10.818;2023-04-09T15:24:36;11.40;94.70
41985;DHT22;28319;48.116;10.818;2023-04-09T15:29:38;11.40;95.10
41985;DHT22;28319;48.116;10.818;2023-04-09T15:34:40;11.40;95.20
41985;DHT22;28319;48.116;10.818;2023-04-09T15:39:44;11.30;94.90
41985;DHT22;28319;48.116;10.818;2023-04-09T15:44:46;11.10;95.60
41985;DHT22;28319;48.116;10.818;2023-04-09T15:49:48;11.00;96.00
41985;DHT22;28319;48.116;10.818;2023-04-09T15:54:51;11.00;96.50
41985;DHT22;28319;48.116;10.818;2023-04-09T15:59:53;10.80;96.00
41985;DHT22;28319;48.116;10.818;2023-04-09T16:04:55;10.90;94.70
41985;DHT22;28319;48.116;10.818;2023-04-09T16:09:59;10.90;94.80
41985;DHT22;28319;48.116;10.818;2023-04-09T16:15:01;10.90;95.40
41985;DHT22;28319;48.116;10.818;2023-04-09T16:20:04;10.90;94.60
41985;DHT22;28319;48.116;10.818;2023-04-09T16:25:09;10.80;95.60
41985;DHT22;28319;48.116;10.818;2023-04-09T16:30:12;10.80;95.80
41985;DHT22;28319;48.116;10.818;2023-04-09T16:35:14;10.50;95.50
41985;DHT22;28319;48.116;10.818;2023-04-09T16:40:19;10.40;96.00
41985;DHT22;28319;48.116;10.818;2023-04-09T16:45:23;10.30;96.30
41985;DHT22;28319;48.116;10.818;2023-04-09T16:50:25;10.20;96.80
41985;DHT22;28319;48.116;10.818;2023-04-09T16:55:29;10.10;96.90
41985;DHT22;28319;48.116;10.818;2023-04-09T17:00:31;10.10;97.70
41985;DHT22;28319;48.116;10.818;2023-04-09T17:05:34;10.10;97.10
41985;DHT22;28319;48.116;10.818;2023-04-09T17:10:38;10.20;97.40
41985;DHT22;28319;48.116;10.818;2023-04-09T17:15:40;10.10;96.90
41985;DHT22;28319;48.116;10.818;2023-04-09T17:20:42;9.90;96.70
41985;DHT22;28319;48.116;10.818;2023-04-09T17:25:46;9.80;97.20
41985;DHT22;28319;48.116;10.818;2023-04-09T17:30:48;9.70;97.70
41985;DHT22;28319;48.116;10.818;2023-04-09T17:35:50;9.60;98.00
41985;DHT22;28319;48.116;10.818;2023-04-09T17:40:53;9.50;98.10
41985;DHT22;28319;48.116;10.818;2023-04-09T17:45:55;9.60;98.50
41985;DHT22;28319;48.116;10.818;2023-04-09T17:50:57;9.50;98.70
41985;DHT22;28319;48.116;10.818;2023-04-09T17:56:01;9.50;99.00
41985;DHT22;28319;48.116;10.818;2023-04-09T18:01:05;9.40;99.30
41985;DHT22;28319;48.116;10.818;2023-04-09T18:06:08;9.40;98.80
41985;DHT22;28319;48.116;10.818;2023-04-09T18:11:11;9.30;99.40
41985;DHT22;28319;48.116;10.818;2023-04-09T18:16:15;9.20;99.10
41985;DHT22;28319;48.116;10.818;2023-04-09T18:21:19;9.10;99.70
41985;DHT22;28319;48.116;10.818;2023-04-09T18:26:23;9.20;99.80
41985;DHT22;28319;48.116;10.818;2023-04-09T18:31:25;9.20;99.90
41985;DHT22;28319;48.116;10.818;2023-04-09T18:36:28;9.10;99.90
41985;DHT22;28319;48.116;10.818;2023-04-09T18:41:31;9.10;99.90
41985;DHT22;28319;48.116;10.818;2023-04-09T18:46:33;8.90;99.90
41985;DHT22;28319;48.116;10.818;2023-04-09T18:51:35;8.90;99.90
41985;DHT22;28319;48.116;10.818;2023-04-09T18:56:40;8.80;99.90
41985;DHT22;28319;48.116;10.818;2023-04-09T19:01:42;8.50;99.90
41985;DHT22;28319;48.116;10.818;2023-04-09T19:06:45;8.30;99.90
41985;DHT22;28319;48.116;10.818;2023-04-09T19:11:50;8.40;99.90
41985;DHT22;28319;48.116;10.818;2023-04-09T19:16:52;8.50;99.90
41985;DHT22;28319;48.116;10.818;2023-04-09T19:21:55;8.50;99.90
41985;DHT22;28319;48.116;10.818;2023-04-09T19:26:59;8.60;99.90
41985;DHT22;28319;48.116;10.818;2023-04-09T19:32:07;8.50;99.90
41985;DHT22;28319;48.116;10.818;2023-04-09T19:37:12;8.40;99.90
41985;DHT22;28319;48.116;10.818;2023-04-09T19:42:17;8.30;99.90
41985;DHT22;28319;48.116;10.818;2023-04-09T19:47:19;8.20;99.90
41985;DHT22;28319;48.116;10.818;2023-04-09T19:52:21;8.30;99.90
41985;DHT22;28319;48.116;10.818;2023-04-09T19:57:24;8.20;99.90
41985;DHT22;28319;48.116;10.818;2023-04-09T20:02:26;8.00;99.90
41985;DHT22;28319;48.116;10.818;2023-04-09T20:07:28;7.70;99.90
41985;DHT22;28319;48.116;10.818;2023-04-09T20:12:33;7.60;99.90
41985;DHT22;28319;48.116;10.818;2023-04-09T20:17:35;7.50;99.90
41985;DHT22;28319;48.116;10.818;2023-04-09T20:22:37;7.50;99.90
41985;DHT22;28319;48.116;10.818;2023-04-09T20:27:44;7.50;99.90
41985;DHT22;28319;48.116;10.818;2023-04-09T20:32:46;7.40;99.90
41985;DHT22;28319;48.116;10.818;2023-04-09T20:37:49;7.30;99.90
41985;DHT22;28319;48.116;10.818;2023-04-09T20:42:52;7.30;99.90
41985;DHT22;28319;48.116;10.818;2023-04-09T20:47:55;7.20;99.90
41985;DHT22;28319;48.116;10.818;2023-04-09T20:52:57;7.00;99.90
41985;DHT22;28319;48.116;10.818;2023-04-09T20:58:01;7.00;99.90
41985;DHT22;28319;48.116;10.818;2023-04-09T21:03:03;7.00;99.90
41985;DHT22;28319;48.116;10.818;2023-04-09T21:08:06;6.80;99.90
41985;DHT22;28319;48.116;10.818;2023-04-09T21:13:09;6.80;99.90
41985;DHT22;28319;48.116;10.818;2023-04-09T21:18:13;6.60;99.90
41985;DHT22;28319;48.116;10.818;2023-04-09T21:23:15;6.60;99.90
41985;DHT22;28319;48.116;10.818;2023-04-09T21:28:19;6.40;99.90
41985;DHT22;28319;48.116;10.818;2023-04-09T21:33:22;6.50;99.90
41985;DHT22;28319;48.116;10.818;2023-04-09T21:38:25;6.40;99.90
41985;DHT22;28319;48.116;10.818;2023-04-09T21:43:28;6.40;99.90
41985;DHT22;28319;48.116;10.818;2023-04-09T21:48:30;6.30;99.90
41985;DHT22;28319;48.116;10.818;2023-04-09T21:53:32;6.30;99.90
41985;DHT22;28319;48.116;10.818;2023-04-09T21:58:36;6.20;99.90
41985;DHT22;28319;48.116;10.818;2023-04-09T22:03:38;6.10;99.90
41985;DHT22;28319;48.116;10.818;2023-04-09T22:08:40;5.90;99.90
41985;DHT22;28319;48.116;10.818;2023-04-09T22:13:44;5.70;99.90
41985;DHT22;28319;48.116;10.818;2023-04-09T22:18:46;5.70;99.90
41985;DHT22;28319;48.116;10.818;2023-04-09T22:23:48;5.70;99.90
41985;DHT22;28319;48.116;10.818;2023-04-09T22:28:51;5.70;99.90
41985;DHT22;28319;48.116;10.818;2023-04-09T22:33:53;5.60;99.90
41985;DHT22;28319;48.116;10.818;2023-04-09T22:38:55;5.50;99.90
41985;DHT22;28319;48.116;10.818;2023-04-09T22:43:59;5.50;99.90
41985;DHT22;28319;48.116;10.818;2023-04-09T22:49:01;5.40;99.90
41985;DHT22;28319;48.116;10.818;2023-04-09T22:54:03;5.40;99.90
41985;DHT22;28319;48.116;10.818;2023-04-09T22:59:06;5.30;99.90
41985;DHT22;28319;48.116;10.818;2023-04-09T23:04:08;5.10;99.90
41985;DHT22;28319;48.116;10.818;2023-04-09T23:09:11;5.10;99.90
41985;DHT22;28319;48.116;10.818;2023-04-09T23:14:14;5.10;99.90
41985;DHT22;28319;48.116;10.818;2023-04-09T23:19:16;5.20;99.90
41985;DHT22;28319;48.116;10.818;2023-04-09T23:24:19;5.20;99.90
41985;DHT22;28319;48.116;10.818;2023-04-09T23:29:22;5.20;99.90
41985;DHT22;28319;48.116;10.818;2023-04-09T23:34:24;5.00;99.90
41985;DHT22;28319;48.116;10.818;2023-04-09T23:39:26;5.00;99.90
41985;DHT22;28319;48.116;10.818;2023-04-09T23:44:30;4.90;99.90
41985;DHT22;28319;48.116;10.818;2023-04-09T23:49:32;4.80;99.90
41985;DHT22;28319;48.116;10.818;2023-04-09T23:54:35;4.80;99.90
41985;DHT22;28319;48.116;10.818;2023-04-09T23:59:38;4.70;99.90
